Time;durP1;ratioP1;P1;durP2;ratioP2;P2;SDS_P1;SDS_P2;PMS_P1;PMS_P2;Temp;Humidity;BMP_temperature;BMP_pressure;BME280_temperature;BME280_humidity;BME280_pressure;Samples;Min_cycle;Max_cycle;Signal;HPM_P1;HPM_P2
2021/01/15 00:00:07;;;;;;;38.90;19.62;;;;;;;-2.28;65.62;99086.69;1763262;80;21654;-67
2021/01/15 00:02:36;;;;;;;35.10;17.20;;;;;;;-2.37;65.90;99092.91;1762711;80;21124;-68
2021/01/15 00:05:06;;;;;;;37.30;19.17;;;;;;;-2.45;66.15;99087.18;1764735;80;22211;-63
2021/01/15 00:07:34;;;;;;;39.98;19.42;;;;;;;-2.50;66.31;99090.80;1764186;80;21061;-63
2021/01/15 00:10:02;;;;;;;41.25;19.17;;;;;;;-2.47;66.45;99091.28;1768162;80;21076;-64
2021/01/15 00:12:30;;;;;;;43.47;18.77;;;;;;;-2.43;66.35;99092.27;1765562;80;21077;-65
2021/01/15 00:14:59;;;;;;;36.70;19.33;;;;;;;-2.44;66.30;99097.17;1764586;80;21013;-66
2021/01/15 00:17:33;;;;;;;39.13;19.42;;;;;;;-2.50;66.31;99087.68;1766231;80;21342;-63
2021/01/15 00:20:04;;;;;;;40.45;19.32;;;;;;;-2.47;66.39;99088.66;1765392;79;21604;-68
2021/01/15 00:22:33;;;;;;;38.67;18.82;;;;;;;-2.40;66.46;99090.14;1763767;80;21464;-68
2021/01/15 00:25:01;;;;;;;44.03;19.73;;;;;;;-2.29;66.43;99092.41;1764507;80;21049;-69
2021/01/15 00:27:30;;;;;;;36.00;18.62;;;;;;;-2.18;66.29;99085.17;1764999;80;21546;-68
2021/01/15 00:29:58;;;;;;;38.33;21.20;;;;;;;-2.08;66.09;99086.31;1765628;80;21205;-68
2021/01/15 00:32:27;;;;;;;49.30;22.62;;;;;;;-2.01;65.95;99089.41;1612366;88;21218;-68
2021/01/15 00:34:56;;;;;;;51.55;22.85;;;;;;;-1.94;65.75;99086.94;1611319;88;21323;-68
2021/01/15 00:37:24;;;;;;;44.42;23.45;;;;;;;-1.88;65.57;99083.64;1611899;88;21279;-66
2021/01/15 00:39:52;;;;;;;54.60;23.97;;;;;;;-1.83;65.25;99085.75;1605644;88;21032;-68
2021/01/15 00:42:29;;;;;;;42.00;21.65;;;;;;;-1.79;65.08;99089.19;1811292;77;21026;-68
2021/01/15 00:44:57;;;;;;;62.10;28.27;;;;;;;-1.87;64.97;99091.02;1783125;79;21442;-66
2021/01/15 00:47:31;;;;;;;;;;;;;;;-1.93;64.81;99097.75;1819072;79;21289;-67
2021/01/15 00:49:59;;;;;;;63.95;25.02;;;;;;;-2.09;64.81;99096.02;1762545;79;20235;-67
2021/01/15 00:52:28;;;;;;;70.17;28.38;;;;;;;-2.32;65.13;99094.05;1807197;78;20944;-68
2021/01/15 00:54:56;;;;;;;62.63;26.93;;;;;;;-2.48;65.42;99092.76;1816612;79;21046;-69
2021/01/15 00:57:26;;;;;;;64.67;27.75;;;;;;;-2.56;65.76;99091.44;1815157;79;20920;-66
2021/01/15 00:59:55;;;;;;;68.15;27.42;;;;;;;-2.59;66.02;99092.61;1816744;79;21195;-67
2021/01/15 01:02:28;;;;;;;72.60;30.08;;;;;;;-2.68;66.26;99083.91;1781296;79;20959;-67
2021/01/15 01:04:58;;;;;;;56.20;25.08;;;;;;;-2.77;66.48;99088.81;1816191;79;21010;-66
2021/01/15 01:07:27;;;;;;;;;;;;;;;-2.80;66.69;99090.95;1756765;80;21252;-66
2021/01/15 01:09:57;;;;;;;47.80;21.97;;;;;;;-2.81;66.85;99092.77;1781324;80;20215;-66
2021/01/15 01:12:26;;;;;;;52.13;21.33;;;;;;;-2.85;66.99;99096.69;1784211;80;21201;-67
2021/01/15 01:14:55;;;;;;;40.23;18.35;;;;;;;-2.89;67.06;99095.37;1784224;80;21023;-66
2021/01/15 01:17:23;;;;;;;47.30;20.40;;;;;;;-2.94;67.14;99094.55;1750728;80;21125;-68
2021/01/15 01:19:51;;;;;;;46.50;22.02;;;;;;;-2.95;67.24;99092.89;1784161;80;21175;-66
2021/01/15 01:22:19;;;;;;;45.38;19.42;;;;;;;-2.93;67.29;99091.42;1781557;80;21044;-67
2021/01/15 01:24:48;;;;;;;43.25;19.10;;;;;;;-2.93;67.26;99093.58;1751401;80;22283;-67
2021/01/15 01:27:16;;;;;;;41.30;20.37;;;;;;;-2.95;67.24;99092.09;1784243;80;21064;-66
2021/01/15 01:29:44;;;;;;;30.25;13.68;;;;;;;-2.94;67.17;99093.73;1725494;80;21674;-66
2021/01/15 01:32:12;;;;;;;39.87;18.90;;;;;;;-2.91;67.09;99090.28;1784288;80;21028;-67
2021/01/15 01:34:41;;;;;;;42.17;19.48;;;;;;;-2.81;67.00;99091.45;1784468;80;21028;-68
2021/01/15 01:37:09;;;;;;;35.47;19.00;;;;;;;-2.70;66.81;99098.98;1781802;80;21614;-67
2021/01/15 01:39:37;;;;;;;33.50;17.47;;;;;;;-2.58;66.56;99097.36;1784469;80;21679;-69
2021/01/15 01:42:06;;;;;;;34.93;17.90;;;;;;;-2.48;66.20;99092.76;1783936;80;21571;-68
2021/01/15 01:44:34;;;;;;;24.75;13.93;;;;;;;-2.44;65.85;99095.39;1783688;80;20995;-67
2021/01/15 01:47:03;;;;;;;44.07;20.43;;;;;;;-2.43;65.56;99096.20;1783682;80;21071;-67
2021/01/15 01:49:33;;;;;;;44.00;20.57;;;;;;;-2.51;65.48;99093.91;1783498;80;21225;-65
2021/01/15 01:52:04;;;;;;;50.67;21.48;;;;;;;-2.52;65.75;99094.07;1778116;80;21023;-66
2021/01/15 01:54:34;;;;;;;48.45;21.37;;;;;;;-2.47;65.79;99093.91;1780542;80;21120;-68
2021/01/15 01:57:05;;;;;;;42.53;19.17;;;;;;;-2.42;65.80;99089.97;1782439;80;21028;-66
2021/01/15 01:59:35;;;;;;;37.50;19.15;;;;;;;-2.44;65.83;99092.77;1751509;80;21060;-66
2021/01/15 02:02:04;;;;;;;35.23;18.25;;;;;;;-2.45;65.92;99095.05;1782784;80;21169;-67
2021/01/15 02:04:32;;;;;;;;;;;;;;;-2.48;66.04;99085.70;1785669;80;21182;-66
2021/01/15 02:07:00;;;;;;;35.45;18.30;;;;;;;-2.55;66.15;99087.84;1783035;80;20496;-67
2021/01/15 02:09:43;;;;;;;36.50;18.32;;;;;;;-2.63;66.40;99087.86;1781707;80;21153;-66
2021/01/15 02:12:30;;;;;;;41.28;19.62;;;;;;;-2.57;66.67;99088.01;1858477;76;23356;-67
2021/01/15 02:15:20;;;;;;;36.60;19.17;;;;;;;-2.55;66.80;99089.16;1797449;79;21160;-66
2021/01/15 02:17:53;;;;;;;37.17;17.80;;;;;;;-2.40;66.85;99082.74;1798176;79;21130;-66
2021/01/15 02:20:44;;;;;;;36.93;17.80;;;;;;;-2.25;66.68;99084.20;1798219;79;21032;-67
2021/01/15 02:23:39;;;;;;;38.73;19.30;;;;;;;-2.18;66.64;99081.23;1785006;79;21587;-66
2021/01/15 02:26:36;;;;;;;40.08;19.32;;;;;;;-2.05;66.53;99090.72;1799081;79;21136;-68
2021/01/15 02:29:19;;;;;;;38.15;19.20;;;;;;;-1.94;66.31;99087.75;1798962;79;21021;-71
2021/01/15 02:32:11;;;;;;;38.60;19.52;;;;;;;-1.81;66.09;99085.92;1797292;79;21259;-69
2021/01/15 02:35:19;;;;;;;32.63;17.95;;;;;;;-1.73;65.88;99094.26;1797389;79;21540;-69
2021/01/15 02:38:09;;;;;;;39.10;19.57;;;;;;;-1.71;65.61;99088.33;1795905;79;21049;-70
2021/01/15 02:40:59;;;;;;;34.88;18.42;;;;;;;-1.82;65.52;99082.95;1818024;77;22764;-69
2021/01/15 02:43:31;;;;;;;35.15;17.32;;;;;;;-1.90;65.78;99085.59;1833309;76;21059;-69
2021/01/15 02:45:59;;;;;;;41.55;19.52;;;;;;;-1.82;65.80;99089.52;1836616;77;21262;-70
2021/01/15 02:48:30;;;;;;;33.18;18.50;;;;;;;-1.74;65.66;99086.55;1821583;77;21027;-69
2021/01/15 02:51:01;;;;;;;39.03;20.15;;;;;;;-1.73;65.34;99086.88;1837541;77;21639;-68
2021/01/15 02:53:30;;;;;;;38.23;19.10;;;;;;;-1.91;65.50;99087.08;1837365;77;20976;-69
2021/01/15 02:55:58;;;;;;;41.85;19.10;;;;;;;-2.08;65.79;99082.38;1837643;77;21162;-68
2021/01/15 02:58:27;;;;;;;41.68;20.92;;;;;;;-2.29;66.13;99090.29;1837911;77;21354;-68
2021/01/15 03:00:56;;;;;;;37.23;19.20;;;;;;;-2.44;66.55;99090.61;1835697;77;21039;-70
2021/01/15 03:03:33;;;;;;;;;;;;;;;-2.48;66.81;99092.76;1837287;77;20940;-69
2021/01/15 03:06:12;;;;;;;42.20;19.17;;;;;;;-2.44;67.00;99086.67;1805817;78;20144;-67
2021/01/15 03:08:40;;;;;;;36.08;19.65;;;;;;;-2.41;67.11;99092.44;1820923;78;21018;-68
2021/01/15 03:11:09;;;;;;;41.90;18.92;;;;;;;-2.34;67.05;99093.89;1793165;78;21282;-69
2021/01/15 03:13:37;;;;;;;40.90;19.45;;;;;;;-2.36;67.02;99091.94;1823202;78;21508;-68
2021/01/15 03:16:06;;;;;;;40.20;18.87;;;;;;;-2.37;67.06;99087.66;1822854;78;21054;-65
2021/01/15 03:18:34;;;;;;;34.88;18.87;;;;;;;-2.40;67.07;99083.58;1822715;78;21078;-66
2021/01/15 03:21:03;;;;;;;38.80;18.80;;;;;;;-2.41;67.15;99085.06;1821846;78;21200;-66
2021/01/15 03:23:38;;;;;;;42.80;19.57;;;;;;;-2.40;67.22;99083.58;1822896;78;21262;-67
2021/01/15 03:26:07;;;;;;;39.45;19.77;;;;;;;-2.34;67.24;99082.91;1822498;78;20932;-67
2021/01/15 03:28:35;;;;;;;40.25;20.30;;;;;;;-2.28;67.19;99077.50;1793515;78;21003;-67
2021/01/15 03:31:03;;;;;;;42.62;20.65;;;;;;;-2.22;67.03;99072.88;1793106;78;21671;-66
2021/01/15 03:33:32;;;;;;;41.65;20.45;;;;;;;-2.20;66.77;99075.34;1822830;78;21086;-69
2021/01/15 03:36:00;;;;;;;38.90;18.55;;;;;;;-2.17;66.94;99071.87;1819384;78;21204;-66
2021/01/15 03:38:29;;;;;;;40.20;19.10;;;;;;;-2.07;66.67;99078.77;1822786;78;21569;-66
2021/01/15 03:40:58;;;;;;;26.10;13.80;;;;;;;-2.08;66.54;99073.99;1813912;78;21482;-66
2021/01/15 03:43:26;;;;;;;37.13;17.67;;;;;;;-2.11;66.40;99078.27;1686478;85;21191;-65
2021/01/15 03:45:56;;;;;;;38.33;18.87;;;;;;;-2.17;66.40;99077.63;1686963;85;21176;-65
2021/01/15 03:48:34;;;;;;;38.48;19.02;;;;;;;-2.18;66.49;99081.23;1823947;77;22848;-67
2021/01/15 03:51:03;;;;;;;41.50;19.77;;;;;;;-2.27;66.57;99088.30;1768022;79;21050;-65
2021/01/15 03:53:31;;;;;;;51.18;22.65;;;;;;;-2.29;66.68;99088.47;1736422;81;21191;-65
2021/01/15 03:56:00;;;;;;;53.50;22.42;;;;;;;-2.23;66.73;99082.24;1759197;80;21006;-66
2021/01/15 03:58:28;;;;;;;41.20;20.70;;;;;;;-2.25;66.71;99074.53;1735608;82;21050;-64
2021/01/15 04:00:57;;;;;;;32.28;15.85;;;;;;;-2.22;66.71;99079.92;1736108;81;21065;-67
2021/01/15 04:03:25;;;;;;;;;;;;;;;-2.18;66.70;99078.61;1707797;82;21088;-68
2021/01/15 04:05:54;;;;;;;38.40;20.30;;;;;;;-2.16;66.64;99072.72;1732740;82;21387;-67
2021/01/15 04:08:22;;;;;;;39.53;19.12;;;;;;;-2.12;66.64;99081.88;1731227;82;20971;-67
2021/01/15 04:10:50;;;;;;;38.13;19.17;;;;;;;-2.09;66.49;99082.88;1733112;82;21015;-68
2021/01/15 04:13:19;;;;;;;38.85;19.17;;;;;;;-2.10;66.34;99083.05;1729839;82;21137;-66
2021/01/15 04:15:47;;;;;;;36.53;19.27;;;;;;;-2.06;66.33;99086.95;1726822;82;21042;-66
2021/01/15 04:18:16;;;;;;;33.83;16.67;;;;;;;-2.05;66.21;99085.97;1728917;82;21276;-67
2021/01/15 04:20:44;;;;;;;40.70;21.80;;;;;;;-2.10;66.04;99081.73;1729314;82;21284;-67
2021/01/15 04:23:12;;;;;;;46.17;21.83;;;;;;;-2.24;66.09;99079.28;1726557;81;21176;-68
2021/01/15 04:25:40;;;;;;;37.97;19.73;;;;;;;-2.37;66.29;99085.03;1727771;82;21346;-70
2021/01/15 04:28:09;;;;;;;37.08;18.92;;;;;;;-2.50;66.48;99092.12;1732028;82;21148;-67
2021/01/15 04:30:37;;;;;;;29.75;15.23;;;;;;;-2.65;66.79;99093.23;1699898;82;22144;-68
2021/01/15 04:33:06;;;;;;;41.77;20.88;;;;;;;-2.71;67.12;99084.25;1730176;82;21196;-68
2021/01/15 04:35:34;;;;;;;47.67;22.50;;;;;;;-2.67;67.38;99082.91;1725819;82;21030;-67
2021/01/15 04:38:02;;;;;;;46.05;22.35;;;;;;;-2.67;67.38;99082.91;1718468;82;21157;-67
2021/01/15 04:40:30;;;;;;;43.92;23.27;;;;;;;-2.63;67.44;99080.80;1675506;84;21010;-68
2021/01/15 04:43:01;;;;;;;44.67;22.37;;;;;;;-2.56;67.50;99087.50;1727112;82;21275;-66
2021/01/15 04:45:31;;;;;;;46.55;21.87;;;;;;;-2.51;67.50;99086.03;1725887;82;21663;-69
2021/01/15 04:48:01;;;;;;;46.25;22.25;;;;;;;-2.45;67.39;99088.48;1710719;83;21157;-69
2021/01/15 04:50:29;;;;;;;47.37;21.53;;;;;;;-2.43;67.41;99090.45;1711460;83;21614;-69
2021/01/15 04:52:57;;;;;;;48.70;23.40;;;;;;;-2.37;67.41;99094.22;1720555;82;21733;-68
2021/01/15 04:55:26;;;;;;;50.00;24.23;;;;;;;-2.34;67.46;99097.83;1665565;82;21353;-69
2021/01/15 04:57:55;;;;;;;59.98;27.07;;;;;;;-2.29;67.40;99096.34;1715370;82;21030;-68
2021/01/15 05:00:26;;;;;;;51.88;25.10;;;;;;;-2.23;67.44;99104.56;1718730;82;21109;-68
2021/01/15 05:02:54;;;;;;;60.15;26.23;;;;;;;-2.16;67.35;99105.54;1716047;82;21045;-68
2021/01/15 05:05:24;;;;;;;58.28;27.25;;;;;;;-2.08;67.40;99104.70;1717050;82;21525;-68
2021/01/15 05:08:15;;;;;;;59.75;28.83;;;;;;;-1.96;67.35;99107.29;1660708;82;21295;-70
2021/01/15 05:10:45;;;;;;;60.08;27.50;;;;;;;-1.83;67.22;99103.64;1699763;83;21662;-71
2021/01/15 05:13:15;;;;;;;66.53;29.35;;;;;;;-1.68;67.06;99116.92;1703238;83;21013;-72
2021/01/15 05:15:46;;;;;;;64.80;30.27;;;;;;;-1.55;66.82;99115.55;1703136;83;21049;-71
2021/01/15 05:18:15;;;;;;;53.15;26.37;;;;;;;-1.46;66.59;99118.47;1708945;83;20967;-71
2021/01/15 05:20:47;;;;;;;60.05;27.55;;;;;;;-1.37;66.37;99122.72;1745452;81;21108;-71
2021/01/15 05:23:15;;;;;;;58.75;27.37;;;;;;;-1.29;66.20;99123.17;1709208;83;20955;-66
2021/01/15 05:25:47;;;;;;;62.00;29.45;;;;;;;-1.21;66.07;99131.01;1670513;83;21089;-66
2021/01/15 05:28:17;;;;;;;57.40;26.23;;;;;;;-1.13;65.83;99136.75;1592756;89;21242;-66
2021/01/15 05:30:56;;;;;;;57.83;28.12;;;;;;;-1.12;65.66;99128.68;1595921;89;21184;-67
2021/01/15 05:33:32;;;;;;;59.37;32.60;;;;;;;-1.04;65.58;99128.31;1834219;76;27813;-68
2021/01/15 05:36:00;;;;;;;;;;;;;;;-1.00;65.53;99129.11;1793958;77;20954;-67
2021/01/15 05:38:28;;;;;;;57.75;29.40;;;;;;;-0.93;65.39;99132.69;1762665;80;21260;-65
2021/01/15 05:40:57;;;;;;;58.58;27.93;;;;;;;-0.91;65.33;99137.27;1761344;79;21100;-65
2021/01/15 05:43:28;;;;;;;56.03;27.23;;;;;;;-0.85;65.24;99134.92;1799474;79;21008;-67
2021/01/15 05:46:20;;;;;;;46.45;23.22;;;;;;;-0.82;65.19;99138.04;1786092;79;21128;-68
2021/01/15 05:51:32;;;;;;;44.10;22.80;;;;;;;-0.72;65.03;99148.35;1801332;77;22713;-68
2021/01/15 05:54:02;;;;;;;46.70;22.30;;;;;;;-0.75;65.02;99149.98;1755927;81;21184;-67
2021/01/15 05:56:46;;;;;;;44.13;22.35;;;;;;;-0.73;65.02;99154.09;1764878;81;21225;-69
2021/01/15 05:59:16;;;;;;;43.60;23.27;;;;;;;-0.70;64.96;99162.15;1755364;81;21053;-69
2021/01/15 06:01:56;;;;;;;41.28;21.33;;;;;;;-0.66;64.90;99165.23;1765060;81;21029;-69
2021/01/15 06:04:36;;;;;;;40.23;21.27;;;;;;;-0.66;64.80;99170.02;1755549;81;21915;-67
2021/01/15 06:07:14;;;;;;;46.35;22.98;;;;;;;-0.68;64.80;99184.34;1741121;81;21016;-65
2021/01/15 06:09:44;;;;;;;43.58;21.62;;;;;;;-0.80;64.66;99186.55;1734593;82;21556;-69
2021/01/15 06:12:18;;;;;;;46.13;20.60;;;;;;;-0.94;64.36;99194.19;1734648;82;21049;-68
2021/01/15 06:14:50;;;;;;;41.13;19.00;;;;;;;-1.08;64.11;99195.72;1734788;82;21000;-68
2021/01/15 06:17:20;;;;;;;42.43;19.32;;;;;;;-1.14;64.06;99200.86;1732244;82;21784;-68
2021/01/15 06:22:44;;;;;;;36.08;16.70;;;;;;;-1.13;63.48;99207.77;1801686;77;22273;-70
2021/01/15 06:25:25;;;;;;;35.33;16.32;;;;;;;-1.24;63.44;99216.36;1737149;81;21679;-66
2021/01/15 06:28:00;;;;;;;36.85;17.27;;;;;;;-1.22;63.31;99220.12;1739916;80;21049;-67
2021/01/15 06:30:33;;;;;;;30.43;15.85;;;;;;;-1.24;62.85;99226.03;1748988;81;21207;-67
2021/01/15 06:33:10;;;;;;;34.15;15.98;;;;;;;-1.30;62.94;99237.23;1739404;81;20907;-65
2021/01/15 06:35:41;;;;;;;37.05;16.00;;;;;;;-1.29;62.74;99233.63;1748964;81;21025;-66
2021/01/15 06:38:19;;;;;;;31.60;15.25;;;;;;;-1.32;62.69;99225.57;1825135;77;22480;-67
2021/01/15 06:40:51;;;;;;;30.68;15.30;;;;;;;-1.37;62.78;99229.69;1816357;79;21646;-66
2021/01/15 06:43:29;;;;;;;36.40;15.98;;;;;;;-1.33;62.72;99236.27;1749476;82;21214;-66
2021/01/15 06:46:02;;;;;;;36.23;16.20;;;;;;;-1.31;62.62;99237.74;1776130;80;21196;-64
2021/01/15 06:48:39;;;;;;;38.02;16.00;;;;;;;-1.25;62.52;99237.06;1748691;82;21097;-67
2021/01/15 06:51:08;;;;;;;34.83;16.48;;;;;;;-1.20;62.19;99251.52;1749569;82;21493;-65
2021/01/15 06:53:43;;;;;;;35.65;16.25;;;;;;;-1.16;61.99;99253.64;1779139;80;20951;-67
2021/01/15 06:56:18;;;;;;;33.48;17.20;;;;;;;-1.14;61.80;99253.47;1717254;82;22263;-66
2021/01/15 06:58:46;;;;;;;38.63;17.32;;;;;;;-1.13;61.64;99258.56;1777796;80;20951;-66
2021/01/15 07:01:25;;;;;;;36.83;17.20;;;;;;;-1.15;61.36;99264.50;1748132;80;21006;-67
2021/01/15 07:04:29;;;;;;;33.60;16.17;;;;;;;-1.23;61.49;99263.19;1746712;82;21710;-67
2021/01/15 07:07:17;;;;;;;33.02;15.58;;;;;;;-1.25;61.48;99270.44;1746692;82;21177;-65
2021/01/15 07:09:47;;;;;;;;;;;;;;;-1.23;61.61;99276.34;1716709;83;21222;-66
2021/01/15 07:12:17;;;;;;;32.58;16.20;;;;;;;-1.22;61.22;99278.47;1744937;82;20230;-66
2021/01/15 07:14:56;;;;;;;34.60;16.48;;;;;;;-1.22;61.17;99278.00;1745242;82;21619;-64
2021/01/15 07:17:31;;;;;;;35.80;15.48;;;;;;;-1.23;60.99;99272.40;1745254;82;21319;-66
2021/01/15 07:20:11;;;;;;;32.28;14.53;;;;;;;-1.31;60.61;99279.82;1745247;82;21912;-66
2021/01/15 07:22:54;;;;;;;34.33;15.23;;;;;;;-1.43;60.83;99279.83;1744132;82;21238;-68
2021/01/15 07:25:23;;;;;;;33.50;15.88;;;;;;;-1.43;60.94;99285.08;1743250;82;21407;-67
2021/01/15 07:27:54;;;;;;;34.83;16.75;;;;;;;-1.38;61.05;99285.89;1744557;82;21022;-66
2021/01/15 07:30:27;;;;;;;41.70;16.85;;;;;;;-1.28;61.06;99290.00;1745645;80;21022;-69
2021/01/15 07:32:57;;;;;;;34.27;16.37;;;;;;;-1.18;60.86;99292.93;1742982;80;21623;-66
2021/01/15 07:35:29;;;;;;;33.67;15.55;;;;;;;-1.14;60.54;99295.55;1745953;80;22138;-67
2021/01/15 07:38:15;;;;;;;33.08;16.35;;;;;;;-1.19;60.17;99301.80;1745869;80;21094;-66
2021/01/15 07:40:43;;;;;;;34.53;16.55;;;;;;;-1.25;60.24;99298.06;1744330;80;21208;-66
2021/01/15 07:43:29;;;;;;;34.27;16.87;;;;;;;-1.14;59.76;99304.77;1745966;80;21176;-71
2021/01/15 07:45:58;;;;;;;33.53;15.90;;;;;;;-1.14;59.76;99304.77;1745736;80;21106;-66
2021/01/15 07:48:30;;;;;;;29.77;15.38;;;;;;;-1.17;59.83;99307.23;1745754;80;21210;-72
2021/01/15 07:50:59;;;;;;;33.23;16.90;;;;;;;-1.20;59.22;99309.39;1741185;80;21058;-69
2021/01/15 07:53:39;;;;;;;35.35;17.15;;;;;;;-1.31;59.33;99302.65;1745184;80;20998;-68
2021/01/15 07:56:07;;;;;;;31.82;16.12;;;;;;;-1.38;59.50;99309.08;1636477;85;21295;-67
2021/01/15 07:58:45;;;;;;;30.60;14.43;;;;;;;-1.34;59.57;99311.72;1672452;84;21271;-67
2021/01/15 08:01:16;;;;;;;41.95;18.02;;;;;;;-1.27;59.77;99317.92;1671317;84;22131;-67
2021/01/15 08:03:57;;;;;;;33.67;15.78;;;;;;;-1.22;59.45;99316.13;1670623;85;21156;-67
2021/01/15 08:06:28;;;;;;;38.35;17.55;;;;;;;-1.22;59.47;99316.13;1672422;84;21132;-68
2021/01/15 08:09:00;;;;;;;35.48;16.90;;;;;;;-1.27;59.42;99331.58;1669861;85;20990;-68
2021/01/15 08:11:35;;;;;;;33.83;15.75;;;;;;;-1.32;59.38;99322.87;1669591;85;21635;-68
2021/01/15 08:14:23;;;;;;;34.18;16.05;;;;;;;-1.38;59.21;99334.54;1667987;85;22113;-68
2021/01/15 08:17:10;;;;;;;35.68;17.92;;;;;;;-1.41;59.75;99344.41;1824110;76;23125;-67
2021/01/15 08:22:14;;;;;;;32.70;16.73;;;;;;;-1.28;59.82;99346.55;1818283;77;22097;-66
2021/01/15 08:24:48;;;;;;;36.42;17.90;;;;;;;-1.25;59.86;99341.45;1831213;77;21038;-67
2021/01/15 08:27:20;;;;;;;35.63;16.20;;;;;;;-1.20;59.80;99342.27;1831354;77;21253;-68
2021/01/15 08:29:53;;;;;;;32.13;16.32;;;;;;;-1.15;59.87;99342.57;1830389;77;21018;-68
2021/01/15 08:32:22;;;;;;;36.77;16.85;;;;;;;-1.14;59.68;99350.30;1827164;77;20936;-67
2021/01/15 08:34:50;;;;;;;29.70;16.17;;;;;;;-1.10;59.75;99351.61;1774184;77;20995;-68
2021/01/15 08:37:20;;;;;;;34.35;16.97;;;;;;;-0.99;59.65;99357.51;1798325;77;21572;-67
2021/01/15 08:39:50;;;;;;;33.55;17.32;;;;;;;-0.91;59.43;99358.31;1797591;77;21200;-67
2021/01/15 08:42:18;;;;;;;33.35;16.70;;;;;;;-0.82;59.22;99359.12;1830779;77;20955;-67
2021/01/15 08:44:47;;;;;;;31.03;14.90;;;;;;;-0.76;58.96;99365.52;1831127;77;21015;-67
2021/01/15 08:47:17;;;;;;;;;;;;;;;-0.80;58.02;99355.00;1830770;77;21190;-70
2021/01/15 08:49:54;;;;;;;33.65;13.88;;;;;;;-0.90;57.68;99354.70;1830041;77;20269;-67
2021/01/15 08:52:32;;;;;;;30.50;15.30;;;;;;;-1.00;57.64;99359.33;1830824;77;21198;-67
2021/01/15 08:55:00;;;;;;;27.73;13.75;;;;;;;-1.01;57.59;99366.08;1830772;77;21117;-68
2021/01/15 08:57:29;;;;;;;29.07;14.73;;;;;;;-1.01;57.25;99366.08;1831011;76;22237;-68
2021/01/15 09:00:14;;;;;;;35.88;14.73;;;;;;;-1.01;57.25;99368.70;1830719;77;21160;-69
2021/01/15 09:02:50;;;;;;;30.12;14.83;;;;;;;-0.92;57.32;99375.08;1837658;77;22539;-67
2021/01/15 09:05:20;;;;;;;27.25;14.10;;;;;;;-0.90;57.28;99377.07;1769798;78;20879;-68
2021/01/15 09:07:49;;;;;;;30.45;15.10;;;;;;;-0.88;57.22;99386.11;1701412;83;21373;-67
2021/01/15 09:10:18;;;;;;;34.95;15.08;;;;;;;-0.85;57.49;99386.25;1766331;80;20965;-66
2021/01/15 09:12:47;;;;;;;28.65;14.03;;;;;;;-0.76;57.37;99383.44;1699831;83;21604;-67
2021/01/15 09:15:25;;;;;;;;;;;;;;;-0.73;56.58;99383.10;1655892;83;21606;-68
2021/01/15 09:17:55;;;;;;;27.27;14.35;;;;;;;-0.86;56.77;99380.68;1696819;82;20178;-70
2021/01/15 09:20:23;;;;;;;32.23;14.18;;;;;;;-0.93;57.18;99383.98;1767159;80;21381;-68
2021/01/15 09:22:52;;;;;;;29.20;15.25;;;;;;;-0.91;57.41;99388.58;1699213;83;21220;-68
2021/01/15 09:25:21;;;;;;;26.48;12.93;;;;;;;-0.87;57.33;99382.47;1764438;80;20965;-69
2021/01/15 09:27:49;;;;;;;29.63;15.10;;;;;;;-0.87;57.33;99382.47;1767375;80;21089;-68
2021/01/15 09:30:19;;;;;;;29.20;14.43;;;;;;;-0.85;57.69;99387.09;1769350;80;21048;-67
2021/01/15 09:32:47;;;;;;;28.67;14.93;;;;;;;-0.82;57.67;99389.38;1767495;80;21443;-69
2021/01/15 09:35:19;;;;;;;29.45;14.70;;;;;;;-0.79;57.71;99390.36;1697972;83;21571;-70
2021/01/15 09:37:47;;;;;;;24.98;13.58;;;;;;;-0.74;57.28;99393.33;1768366;80;21662;-68
2021/01/15 09:40:16;;;;;;;30.15;14.23;;;;;;;-0.69;56.87;99395.45;1767169;80;21595;-67
2021/01/15 09:42:48;;;;;;;;;;;;;;;-0.79;56.18;99392.99;1767587;80;20997;-67
2021/01/15 09:45:25;;;;;;;25.00;11.00;;;;;;;-0.87;55.60;99391.68;1844033;76;22715;-66
2021/01/15 09:47:54;;;;;;;23.65;12.18;;;;;;;-1.12;55.35;99387.80;1799685;79;20903;-67
2021/01/15 09:50:24;;;;;;;23.30;11.83;;;;;;;-1.30;55.52;99396.34;1799685;79;21220;-68
2021/01/15 09:52:52;;;;;;;24.37;12.88;;;;;;;-1.35;55.89;99400.79;1800209;79;21578;-68
2021/01/15 09:55:22;;;;;;;;;;;;;;;-1.31;55.94;99399.48;1686505;83;21625;-64
2021/01/15 09:57:50;;;;;;;22.73;12.33;;;;;;;-1.28;55.86;99394.36;1686957;83;20177;-68
2021/01/15 10:00:19;;;;;;;20.72;10.53;;;;;;;-1.24;55.69;99396.52;1685764;85;21061;-68
2021/01/15 10:02:48;;;;;;;24.20;11.55;;;;;;;-1.19;55.33;99396.02;1682550;85;22138;-69
2021/01/15 10:05:18;;;;;;;18.12;9.70;;;;;;;-1.30;55.10;99401.09;1683753;85;20989;-67
2021/01/15 10:11:28;;;;;;;21.70;9.73;;;;;;;-1.58;55.63;99404.55;1658461;86;21192;-68
2021/01/15 10:17:44;;;;;;;22.33;10.57;;;;;;;-1.54;56.31;99407.19;1764934;79;21025;-67
2021/01/15 10:23:55;;;;;;;20.20;9.88;;;;;;;-1.32;55.86;99400.95;1766384;80;21081;-67
2021/01/15 10:30:01;;;;;;;20.00;8.53;;;;;;;-1.53;56.42;99398.32;1765841;80;21590;-67
2021/01/15 10:36:10;;;;;;;19.20;9.15;;;;;;;-1.76;57.08;99396.30;1766541;79;21033;-67
2021/01/15 10:42:16;;;;;;;18.23;8.80;;;;;;;-1.67;58.02;99404.22;1763106;80;21531;-67
2021/01/15 10:48:10;;;;;;;23.12;10.25;;;;;;;-1.24;57.25;99412.77;1763984;80;21135;-68
2021/01/15 10:54:17;;;;;;;20.68;10.35;;;;;;;-1.09;56.07;99404.56;1760736;80;20942;-67
2021/01/15 11:00:23;;;;;;;17.73;8.80;;;;;;;-1.44;56.37;99412.30;1766506;80;21459;-69
2021/01/15 11:06:28;;;;;;;19.60;8.93;;;;;;;-1.71;54.96;99414.22;1767682;80;21029;-68
2021/01/15 11:12:35;;;;;;;29.63;10.37;;;;;;;-2.43;55.77;99416.45;1768245;80;21887;-68
2021/01/15 11:18:41;;;;;;;23.20;10.08;;;;;;;-2.75;56.14;99420.08;1765601;79;21109;-67
2021/01/15 11:24:48;;;;;;;19.15;8.83;;;;;;;-2.87;55.85;99420.83;1766437;80;21065;-67
2021/01/15 11:30:54;;;;;;;15.75;7.78;;;;;;;-3.00;54.79;99432.22;1763571;80;21532;-69
2021/01/15 11:37:01;;;;;;;12.65;6.25;;;;;;;-3.62;55.41;99437.41;1765806;80;21010;-68
2021/01/15 11:43:07;;;;;;;16.52;7.70;;;;;;;-3.54;55.35;99438.31;1765038;80;21029;-64
2021/01/15 11:49:14;;;;;;;19.95;8.33;;;;;;;-3.42;53.52;99440.72;1765160;80;21579;-63
2021/01/15 11:55:21;;;;;;;16.48;8.85;;;;;;;-3.32;53.79;99449.33;1763039;79;21006;-64
2021/01/15 12:01:27;;;;;;;22.00;9.00;;;;;;;-3.29;52.51;99453.45;1763267;80;20990;-63
2021/01/15 12:07:32;;;;;;;14.87;7.33;;;;;;;-3.75;52.14;99445.66;1759798;80;21041;-63
2021/01/15 12:10:01;;;;;;;15.20;6.67;;;;;;;-3.75;52.14;99445.66;1763349;80;21642;-65
2021/01/15 12:12:29;;;;;;;16.73;7.30;;;;;;;-3.99;52.17;99455.37;1764820;80;21633;-63
2021/01/15 12:14:58;;;;;;;15.20;6.92;;;;;;;-4.20;52.40;99462.98;1765003;80;21216;-63
2021/01/15 12:17:27;;;;;;;15.35;7.05;;;;;;;-4.34;53.08;99468.22;1765098;80;21687;-63
2021/01/15 12:19:55;;;;;;;20.77;8.70;;;;;;;-4.44;53.38;99470.05;1765064;80;21638;-61
2021/01/15 12:22:23;;;;;;;14.85;7.25;;;;;;;-4.49;53.52;99469.63;1763499;80;21627;-63
2021/01/15 12:24:52;;;;;;;17.87;7.70;;;;;;;-4.62;53.54;99476.02;1761239;80;21131;-63
2021/01/15 12:27:20;;;;;;;17.17;8.38;;;;;;;-4.69;53.88;99478.03;1763485;80;21164;-64
2021/01/15 12:29:48;;;;;;;20.80;9.33;;;;;;;-4.68;53.73;99486.20;1764208;80;21622;-63
2021/01/15 12:32:17;;;;;;;21.57;9.68;;;;;;;-4.58;53.76;99487.86;1765428;80;21069;-63
2021/01/15 12:34:45;;;;;;;18.92;8.50;;;;;;;-4.53;53.32;99486.58;1758149;80;21198;-62
2021/01/15 12:37:14;;;;;;;20.55;8.58;;;;;;;-4.50;52.67;99488.44;1762907;80;21147;-62
2021/01/15 12:39:42;;;;;;;19.37;9.10;;;;;;;-4.38;52.06;99490.90;1763698;80;21618;-63
2021/01/15 12:42:14;;;;;;;15.63;7.00;;;;;;;-4.31;51.81;99488.87;1764008;80;22130;-62
2021/01/15 12:44:42;;;;;;;21.77;9.38;;;;;;;-4.25;51.75;99491.40;1757233;80;21137;-63
2021/01/15 12:47:11;;;;;;;16.60;7.65;;;;;;;-4.09;51.52;99489.47;1743953;81;21572;-61
2021/01/15 12:49:40;;;;;;;19.67;9.10;;;;;;;-4.06;51.25;99488.69;1734507;81;21210;-65
2021/01/15 12:52:08;;;;;;;21.70;9.05;;;;;;;-4.06;51.25;99488.69;1753955;80;21618;-62
2021/01/15 12:54:37;;;;;;;20.32;9.40;;;;;;;-4.12;51.42;99495.81;1750097;81;21203;-63
2021/01/15 12:57:08;;;;;;;20.48;8.80;;;;;;;-4.31;51.57;99493.28;1754091;81;20994;-64
2021/01/15 12:59:36;;;;;;;21.77;9.95;;;;;;;-4.57;52.17;99505.67;1754712;81;21065;-63
2021/01/15 13:02:04;;;;;;;17.32;8.15;;;;;;;-4.75;52.78;99505.09;1755457;81;21598;-62